createdAt,value
2022-12-09T00:00:39.215Z,9.38
2022-12-09T00:07:21.538Z,11.15
2022-12-09T00:14:04.164Z,11.27
2022-12-09T00:20:46.539Z,11.15
2022-12-09T00:27:28.879Z,11.55
2022-12-09T00:34:13.595Z,11.00
2022-12-09T00:40:55.918Z,10.48
2022-12-09T00:47:38.430Z,11.57
2022-12-09T00:54:21.126Z,13.10
2022-12-09T01:01:03.689Z,12.32
2022-12-09T01:07:46.787Z,12.20
2022-12-09T01:14:30.126Z,10.55
2022-12-09T01:21:13.084Z,11.73
2022-12-09T01:27:56.072Z,11.55
2022-12-09T01:34:38.417Z,15.65
2022-12-09T01:41:22.068Z,15.88
2022-12-09T01:48:14.463Z,17.00
2022-12-09T01:54:57.938Z,15.82
2022-12-09T02:01:42.767Z,16.50
2022-12-09T02:08:25.762Z,15.18
2022-12-09T02:15:23.646Z,19.98
2022-12-09T02:22:10.779Z,13.98
2022-12-09T02:29:07.054Z,12.57
2022-12-09T02:36:05.066Z,16.52
2022-12-09T02:42:49.475Z,18.83
2022-12-09T02:49:34.387Z,14.88
2022-12-09T02:56:18.658Z,12.25
2022-12-09T03:03:04.054Z,12.27
2022-12-09T03:09:52.917Z,16.02
2022-12-09T03:16:51.609Z,12.40
2022-12-09T03:23:35.915Z,12.63
2022-12-09T03:30:19.251Z,14.25
2022-12-09T03:37:03.948Z,12.02
2022-12-09T03:43:55.506Z,12.55
2022-12-09T03:50:43.821Z,12.75
2022-12-09T03:57:27.437Z,12.35
2022-12-09T04:04:10.282Z,11.90
2022-12-09T04:10:52.769Z,12.27
2022-12-09T04:17:35.424Z,11.23
2022-12-09T04:24:18.426Z,13.60
2022-12-09T04:31:01.063Z,10.88
2022-12-09T04:37:43.877Z,11.15
2022-12-09T04:44:26.270Z,12.20
2022-12-09T04:51:09.769Z,15.30
2022-12-09T04:57:52.166Z,11.15
2022-12-09T05:04:34.800Z,12.73
2022-12-09T05:11:19.552Z,13.38
2022-12-09T05:18:03.098Z,10.82
2022-12-09T05:24:47.505Z,15.10
2022-12-09T05:31:30.437Z,15.48
2022-12-09T05:38:12.963Z,16.17
2022-12-09T05:44:56.391Z,13.40
2022-12-09T05:51:39.172Z,15.27
2022-12-09T05:58:21.736Z,14.95
2022-12-09T06:05:05.156Z,21.35
2022-12-09T06:11:47.915Z,16.25
2022-12-09T06:18:30.632Z,12.68
2022-12-09T06:25:13.535Z,15.07
2022-12-09T06:31:56.266Z,12.95
2022-12-09T06:38:38.899Z,14.60
2022-12-09T06:45:21.752Z,13.20
2022-12-09T06:52:04.513Z,18.10
2022-12-09T06:58:47.585Z,13.05
2022-12-09T07:05:30.193Z,14.13
2022-12-09T07:12:13.045Z,16.98
2022-12-09T07:18:55.839Z,18.73
2022-12-09T07:25:39.003Z,16.52
2022-12-09T07:32:21.410Z,14.30
2022-12-09T07:39:14.632Z,16.58
2022-12-09T07:45:57.380Z,14.57
2022-12-09T07:52:42.797Z,17.55
2022-12-09T07:59:25.396Z,14.50
2022-12-09T08:06:13.798Z,14.80
2022-12-09T08:12:56.753Z,14.32
2022-12-09T08:19:39.578Z,15.52
2022-12-09T08:26:24.783Z,13.02
2022-12-09T08:33:07.346Z,14.90
2022-12-09T08:39:50.249Z,12.55
2022-12-09T08:46:33.919Z,17.83
2022-12-09T08:53:16.664Z,17.17
2022-12-09T09:00:00.563Z,18.50
2022-12-09T09:06:45.917Z,13.90
2022-12-09T09:13:28.633Z,17.63
2022-12-09T09:20:11.580Z,14.13
2022-12-09T09:26:54.843Z,16.45
2022-12-09T09:33:37.980Z,16.48
2022-12-09T09:40:21.783Z,21.80
2022-12-09T09:47:17.749Z,14.98
2022-12-09T09:54:08.688Z,18.75
2022-12-09T10:01:14.443Z,19.55
2022-12-09T10:08:06.641Z,17.15
2022-12-09T10:15:04.558Z,18.83
2022-12-09T10:21:51.321Z,18.42
2022-12-09T10:28:38.565Z,23.67
2022-12-09T10:35:29.861Z,15.75
2022-12-09T10:42:35.039Z,19.88
2022-12-09T10:49:20.996Z,17.38
2022-12-09T10:56:04.965Z,18.33
2022-12-09T11:02:54.691Z,18.42
2022-12-09T11:09:44.816Z,22.88
2022-12-09T11:16:27.925Z,26.88
2022-12-09T11:23:13.397Z,18.42
2022-12-09T11:30:25.510Z,21.13
2022-12-09T11:37:11.272Z,20.33
2022-12-09T11:43:57.482Z,21.25
2022-12-09T11:50:42.580Z,19.88
2022-12-09T11:57:34.330Z,22.17
2022-12-09T12:04:22.735Z,20.50
2022-12-09T12:11:15.287Z,20.33
2022-12-09T12:18:02.837Z,21.83
2022-12-09T12:24:48.684Z,26.20
2022-12-09T12:31:40.149Z,20.60
2022-12-09T12:38:35.287Z,20.20
2022-12-09T12:45:42.586Z,21.60
2022-12-09T13:00:18.809Z,25.20
2022-12-09T13:07:06.256Z,27.08
2022-12-09T13:13:55.309Z,24.92
2022-12-09T13:20:53.583Z,19.80
2022-12-09T13:27:54.662Z,23.50
2022-12-09T13:34:44.289Z,27.80
2022-12-09T13:41:26.677Z,22.10
2022-12-09T13:48:16.565Z,23.60
2022-12-09T13:54:59.548Z,28.50
2022-12-09T14:02:01.881Z,26.80
2022-12-09T14:08:49.819Z,26.33
2022-12-09T14:15:32.171Z,27.55
2022-12-09T14:22:21.072Z,24.45
2022-12-09T14:29:04.109Z,27.85
2022-12-09T14:35:50.694Z,27.95
2022-12-09T14:43:13.598Z,30.33
2022-12-09T14:50:06.999Z,35.25
2022-12-09T14:56:53.068Z,33.90
2022-12-09T15:03:42.771Z,32.75
2022-12-09T15:10:36.399Z,38.67
2022-12-09T15:17:29.403Z,36.55
2022-12-09T15:24:14.077Z,40.13
2022-12-09T15:31:16.420Z,43.58
2022-12-09T15:38:03.127Z,44.75
2022-12-09T15:45:11.607Z,41.92
2022-12-09T15:51:56.161Z,43.47
2022-12-09T15:58:52.523Z,46.85
2022-12-09T16:05:41.565Z,46.05
2022-12-09T16:12:31.663Z,50.65
2022-12-09T16:19:24.336Z,45.13
2022-12-09T16:26:07.769Z,45.38
2022-12-09T16:32:54.674Z,53.55
2022-12-09T16:39:38.074Z,44.90
2022-12-09T16:46:20.512Z,48.17
2022-12-09T16:53:05.505Z,45.45
2022-12-09T16:59:48.072Z,46.80
2022-12-09T17:06:30.588Z,47.25
2022-12-09T17:13:12.985Z,47.92
2022-12-09T17:19:55.482Z,50.05
2022-12-09T17:26:37.821Z,51.33
2022-12-09T17:33:20.179Z,45.15
2022-12-09T17:40:03.957Z,50.30
2022-12-09T17:46:46.743Z,50.58
2022-12-09T17:53:29.072Z,52.35
2022-12-09T18:00:12.100Z,50.50
2022-12-09T18:06:54.856Z,48.38
2022-12-09T18:13:38.173Z,54.33
2022-12-09T18:20:20.592Z,47.65
2022-12-09T18:27:03.270Z,46.05
2022-12-09T18:33:46.653Z,48.00
2022-12-09T18:40:29.046Z,43.78
2022-12-09T18:47:11.401Z,45.63
2022-12-09T18:53:53.837Z,50.50
2022-12-09T19:00:36.781Z,49.58
2022-12-09T19:07:19.175Z,44.60
2022-12-09T19:14:02.173Z,44.40
2022-12-09T19:20:44.537Z,47.67
2022-12-09T19:27:26.949Z,46.88
2022-12-09T19:34:31.033Z,49.38
2022-12-09T19:41:13.536Z,44.15
2022-12-09T19:47:55.932Z,43.10
2022-12-09T19:54:39.053Z,44.00
2022-12-09T20:01:30.056Z,41.25
2022-12-09T20:08:12.705Z,41.17
2022-12-09T20:14:55.118Z,40.88
2022-12-09T20:21:39.453Z,38.58
2022-12-09T20:28:21.799Z,39.05
2022-12-09T20:35:08.370Z,42.70
2022-12-09T20:41:51.954Z,41.75
2022-12-09T20:48:35.284Z,42.63
2022-12-09T20:55:17.862Z,39.70
2022-12-09T21:02:00.955Z,40.40
2022-12-09T21:08:44.325Z,40.90
2022-12-09T21:15:28.242Z,36.35
2022-12-09T21:22:10.749Z,38.55
2022-12-09T21:28:53.959Z,38.00
2022-12-09T21:35:36.501Z,34.95
2022-12-09T21:42:18.850Z,36.70
2022-12-09T21:49:04.208Z,36.15
2022-12-09T21:55:46.914Z,40.38
2022-12-09T22:02:29.362Z,38.72
2022-12-09T22:09:12.013Z,36.30
2022-12-09T22:15:55.901Z,37.42
2022-12-09T22:22:39.830Z,35.95
2022-12-09T22:29:22.153Z,38.78
2022-12-09T22:36:06.481Z,37.55
2022-12-09T22:42:50.349Z,34.28
2022-12-09T22:49:33.027Z,35.55
2022-12-09T22:56:15.958Z,39.05
2022-12-09T23:02:58.484Z,34.33
2022-12-09T23:09:40.956Z,33.05
2022-12-09T23:16:24.972Z,32.75
2022-12-09T23:23:07.505Z,32.25
2022-12-09T23:29:49.864Z,30.63
2022-12-09T23:36:35.409Z,34.53
2022-12-09T23:43:18.161Z,35.72
2022-12-09T23:50:00.522Z,31.98
2022-12-09T23:56:46.169Z,31.33
